Hit Tracker is now ESPN Home Run Tracker! Hit Tracker founder Greg Rybarczyk is now collaborating with the ESPN Stats & Information Group to continue tracking all MLB home runs, and helping baseball fans know "How Far It Really Went!™" Please credit any information on this site to ESPN Stats & Information Group. For more information and analysis on home runs, please contact founder Greg Rybarczyk. E-Mail ESPN Home Run Tracker
Main Page | Ballparks | Park Overlays | Glossary | Highlight Homers | Feedback | Bio | 3 Types of HR's | AAA Home Run Derby Last Updated: September 1, 2014, 9:30 pm PST
Welcome to the ESPN Home Run Tracker! Check out the ESPN MLB Scoreboard throughout the 2014 season! Contact us at grybar@hittrackeronline.com.
Season:
Ballpark detail for Target Field
Ballpark # of Home Runs HR per game Avg.
True
Distance
Avg.
Speed
Off
Bat
Avg.
Std.
Dist.
Target Field 113 1.71 391.3 102.1 388

Scatter Plot of Home Runs Target Field
 Overlay Ballpark:
Without range rings   With range rings

2014 Season Home Runs for Target Field
Click headers to sort
Date Video Path Hitter Hitter
Team
Pitcher Pitcher
Team
INN Ballpark Type/
Luck
True
Dist.
Speed
Off
Bat
Elev.
Angle
Horiz.
Angle
Apex Impact Due To: Std.
Dist.
#
Parks
Wind Temp. ^ Alt.
04/17/14 Video View Bautista, Jose TOR Pelfrey, Mike MIN 5 Target Field PL 416 104.9 30.8 103.7 115 3 -7 3 417 30
04/15/14 Video View Lawrie, Brett TOR Burton, Jared MIN 9 Target Field PL 374 100.8 31.1 116.4 95 -1 -6 2 379 30
04/17/14 Video View Dozier, Brian MIN McGowan, Dustin TOR 1 Target Field PL 354 96.9 34.4 120.0 100 2 -6 2 354 28
05/14/14 Video View Ortiz, David BOS Correia, Kevin MIN 3 Target Field PL/L 406 101.5 38.5 76.0 141 41 -6 5 366 1
05/16/14 Video View Pinto, Josmil MIN Young, Chris SEA 4 Target Field PL 375 99.5 36.7 106.3 131 8 -6 4 369 18
04/10/14 Video View Dozier, Brian MIN Straily, Dan OAK 1 Target Field JE/L 381 95.3 39.5 109.2 122 47 -4 4 334 0
05/03/14 Video View Dozier, Brian MIN Chen, Wei-Yin BAL 3 Target Field PL 372 98.6 37.4 114.1 122 17 -4 4 355 12
05/04/14 Video View Cruz, Nelson BAL Hughes, Phil MIN 6 Target Field PL 385 101.1 36.1 118.9 116 17 -4 3 368 30
05/13/14 Video View Nunez, Eduardo MIN Peavy, Jake BOS 2 Target Field JE/L 354 95.6 37.5 111.4 119 10 -4 4 345 2
05/14/14 Video View Plouffe, Trevor MIN Mujica, Edward BOS 9 Target Field JE/L 398 97.4 31.7 102.8 93 20 -4 2 379 4
05/16/14 Video View Dozier, Brian MIN Young, Chris SEA 5 Target Field PL 376 98.5 33.5 115.0 101 9 -4 3 368 27
04/09/14 Video View Kubel, Jason MIN Chavez, Jesse OAK 2 Target Field PL 400 102.7 33.1 76.2 125 -1 -3 3 401 29
04/13/14 Video View Pinto, Josmil MIN Vargas, Jason KC 7 Target Field PL 385 101.0 28.7 109.0 89 0 -3 2 387 30
04/15/14 Video View Plouffe, Trevor MIN Santos, Sergio TOR 9 Target Field PL 395 107.2 24.3 111.8 69 1 -3 1 396 30
04/26/14 Video View Pinto, Josmil MIN Alburquerque, Al DET 8 Target Field PL 414 107.1 29.4 103.8 117 -14 -3 3 429 30
05/02/14 Video View Cruz, Nelson BAL Nolasco, Ricky MIN 6 Target Field ND 440 112.9 27.8 114.0 96 1 -3 2 440 30
05/15/14 Video View Parmelee, Chris MIN Buchholz, Clay BOS 2 Target Field PL 405 101.8 28.9 77.7 94 3 -3 2 403 29
04/09/14 Video View Dozier, Brian MIN Doolittle, Sean OAK 8 Target Field PL 393 100.6 33.6 102.7 121 2 -2 3 391 30
04/10/14 Video View Fuld, Sam OAK Pelfrey, Mike MIN 4 Target Field PL 367 96.3 34.0 56.8 89 17 -2 2 350 21
04/11/14 Video View Pinto, Josmil MIN Chen, Bruce KC 4 Target Field PL 411 104.0 28.7 105.6 96 1 -2 2 409 30
04/12/14 Video View Mauer, Joe MIN Shields, James KC 2 Target Field JE/L 404 102.0 25.8 85.1 91 -4 -2 1 409 22
04/25/14 Video View Dozier, Brian MIN Porcello, Rick DET 6 Target Field PL 387 101.6 30.9 115.2 94 3 -2 2 385 30
05/01/14 Video View Butera, Drew LAD Duensing, Brian MIN 12 Target Field PL 385 102.8 26.8 112.6 75 1 -2 1 385 30
05/03/14 Video View Mauer, Joe MIN Brach, Brad BAL 7 Target Field PL 372 95.5 33.3 114.1 91 17 -2 2 355 4
05/13/14 Video View Ortiz, David BOS Nolasco, Ricky MIN 1 Target Field JE/L 399 98.4 31.1 79.5 97 12 -2 2 387 12
05/13/14 Video View Parmelee, Chris MIN Miller, Andrew BOS 9 Target Field JE 366 99.8 27.5 63.9 71 1 -2 1 365 23
05/14/14 Video View Ortiz, David BOS Thielbar, Caleb MIN 5 Target Field PL 410 103.5 27.3 75.9 85 4 -2 1 407 29
07/01/14 Video View Nunez, Eduardo MIN Mariot, Michael KC 6 Target Field PL 368 97.8 32.1 119.2 88 6 -2 2 361 28
04/07/14 Video View Norris, Derek OAK Correia, Kevin MIN 6 Target Field JE 400 99.8 28.1 98.7 88 4 -1 2 396 12
04/09/14 Video View Norris, Derek OAK Burton, Jared MIN 11 Target Field JE/L 382 96.6 31.8 102.2 99 5 -1 2 375 18
04/10/14 Video View Donaldson, Josh OAK Pelfrey, Mike MIN 3 Target Field JE 412 106.3 23.8 78.1 69 2 -1 1 411 27
04/12/14 Video View Dozier, Brian MIN Shields, James KC 1 Target Field JE 369 102.5 24.9 114.3 65 -1 -1 1 370 19
04/25/14 Video View Castellanos, Nick DET Correia, Kevin MIN 2 Target Field JE 365 97.4 28.6 66.7 74 4 -1 2 361 11
04/26/14 Video View Martinez, Victor DET Perkins, Glen MIN 9 Target Field PL 398 110.7 22.3 111.2 63 -2 -1 1 401 30
05/01/14 Video View Gonzalez, Adrian LAD Tonkin, Michael MIN 7 Target Field JE 403 103.1 24.0 97.8 72 0 -1 1 403 16
05/01/14 Video View Van Slyke, Scott LAD Duensing, Brian MIN 12 Target Field JE 398 104.3 22.8 99.4 66 0 -1 0 398 14
05/13/14 Video View Ortiz, David BOS Nolasco, Ricky MIN 4 Target Field JE 406 102.4 25.6 80.6 77 3 -1 1 403 19
05/17/14 Video View Saunders, Michael SEA Burton, Jared MIN 8 Target Field ND 383 100.4 33.1 62.3 100 7 -1 2 375 29
06/19/14 Video View Willingham, Josh MIN Quintana, Jose CHW 2 Target Field PL 363 101.3 36.7 118.7 125 -6 -1 4 366 30
05/27/14 Video View Arcia, Oswaldo MIN Baker, Scott TEX 2 Target Field JE 408 102.5 30.3 84.7 119 -11 0 2 416 25
05/17/14 Video View Dozier, Brian MIN Elias, Roenis SEA 5 Target Field JE 389 99.4 27.9 102.6 84 1 0 1 387 16
06/05/14 Video View Arcia, Oswaldo MIN Peralta, Wily MIL 3 Target Field ND 440 113.6 29.0 63.0 104 -2 0 3 440 30
06/05/14 Video View Gomez, Carlos MIL Correia, Kevin MIN 4 Target Field JE 417 111.1 18.3 87.0 55 1 0 0 416 17
06/05/14 Video View Davis, Khris MIL Correia, Kevin MIN 6 Target Field JE 368 98.9 27.0 68.6 73 0 0 1 366 13
06/05/14 Video View Lucroy, Jonathan MIL Burton, Jared MIN 9 Target Field JE 355 97.1 30.2 59.8 79 -1 0 2 354 23
06/06/14 Video View Gonzalez, Marwin HOU Hughes, Phil MIN 3 Target Field ND 390 102.6 28.4 65.5 81 2 0 1 387 30
06/06/14 Video View Dominguez, Matt HOU Hughes, Phil MIN 4 Target Field JE 415 102.1 26.3 89.5 87 1 0 1 413 21
06/06/14 Video View Springer, George HOU Hughes, Phil MIN 6 Target Field PL 377 99.2 30.0 66.8 86 2 0 2 374 26
06/06/14 Video View Santana, Danny MIN Sipp, Tony HOU 7 Target Field PL 391 106.7 24.4 115.0 64 1 0 1 388 30
06/08/14 Video View Nunez, Eduardo MIN McHugh, Collin HOU 4 Target Field PL 421 103.9 25.8 95.7 85 1 0 1 418 26
06/08/14 Video View Carter, Chris HOU Duensing, Brian MIN 7 Target Field JE 384 106.9 22.8 68.6 59 0 0 1 383 25
06/08/14 Video View Springer, George HOU Fien, Casey MIN 8 Target Field JE 416 103.0 25.0 91.7 83 0 0 1 415 19
06/08/14 Video View Singleton, Jon HOU Perkins, Glen MIN 9 Target Field PL 392 104.8 24.4 71.9 67 0 0 1 391 28
07/02/14 Video View Ibanez, Raul KC Fien, Casey MIN 8 Target Field PL 366 96.2 33.3 65.8 96 6 0 2 358 15
07/03/14 Video View Wheeler, Zelous NYY Hughes, Phil MIN 5 Target Field PL 415 103.7 25.4 97.6 80 1 0 1 413 28
07/04/14 Video View Dozier, Brian MIN Whitley, Chase NYY 1 Target Field JE/L 381 105.6 21.8 105.7 59 0 0 0 381 14
07/04/14 Video View Colabello, Chris MIN Whitley, Chase NYY 2 Target Field JE 346 95.9 33.4 61.1 96 -9 0 2 352 28
07/18/14 Video View Zobrist, Ben TB Gibson, Kyle MIN 5 Target Field JE/L 369 102.8 23.7 68.9 62 -1 0 1 369 12
07/18/14 Video View Plouffe, Trevor MIN Cobb, Alex TB 3 Target Field JE/L 386 104.6 22.3 103.5 61 0 0 0 386 17
07/24/14 Video View Santana, Danny MIN Noesi, Hector CHW 8 Target Field PL 379 100.0 31.6 67.2 98 -4 0 2 379 29
07/25/14 Video View Flowers, Tyler CHW Burton, Jared MIN 7 Target Field ND 424 114.9 22.3 111.3 66 0 0 1 423 30
07/25/14 Video View Willingham, Josh MIN Thompson, Taylor CHW 9 Target Field PL 420 110.0 21.3 99.8 65 1 0 1 419 30
08/16/14 Video View Suzuki, Kurt MIN Crow, Aaron KC 8 Target Field JE 361 98.5 28.2 117.9 71 1 0 1 359 15
08/17/14 Video View Mauer, Joe MIN Guthrie, Jeremy KC 3 Target Field JE 393 102.3 25.6 103.5 78 -1 0 1 394 27
08/17/14 Video View Gordon, Alex KC Thielbar, Caleb MIN 5 Target Field JE/L 419 104.5 24.4 85.2 84 -1 0 1 418 22
08/17/14 Video View Vargas, Kennys MIN Guthrie, Jeremy KC 5 Target Field JE 401 101.0 27.7 82.1 95 -4 0 2 403 19
08/17/14 Video View Perez, Salvador KC Pressly, Ryan MIN 7 Target Field PL 375 107.1 23.9 123.1 59 -1 0 0 375 30
08/17/14 Video View Arcia, Oswaldo MIN Frasor, Jason KC 8 Target Field ND 398 105.1 28.8 65.1 90 -4 0 2 400 30
08/18/14 Video View Kratz, Erik KC Swarzak, Anthony MIN 7 Target Field JE 355 95.2 32.0 115.9 87 1 0 2 352 10
08/18/14 Video View Arcia, Oswaldo MIN Vargas, Jason KC 7 Target Field ND 410 106.4 28.4 66.6 91 0 0 2 408 30
08/18/14 Video View Plouffe, Trevor MIN Crow, Aaron KC 9 Target Field PL 407 104.1 29.3 106.8 100 -3 0 2 408 30
08/18/14 Video View Kratz, Erik KC Pressly, Ryan MIN 9 Target Field JE 420 102.6 28.1 91.6 100 0 0 2 419 24
08/20/14 Video View Walters, Zach CLE Nolasco, Ricky MIN 2 Target Field ND 433 107.4 26.1 81.1 97 -5 0 1 435 30
08/22/14 Video View Kinsler, Ian DET Milone, Tommy MIN 1 Target Field PL 418 102.1 30.9 101.7 104 9 0 2 405 30
08/22/14 Video View Santana, Danny MIN Ray, Robbie DET 2 Target Field PL 388 102.7 26.7 112.8 73 2 0 1 384 29
08/22/14 Video View Plouffe, Trevor MIN Romine, Andrew DET 8 Target Field ND 422 110.7 28.1 123.5 84 5 0 2 415 30
08/24/14 Video View Davis, Rajai DET Deduno, Samuel MIN 7 Target Field PL 382 104.8 23.6 109.7 65 -2 0 1 382 27
05/26/14 Video View Plouffe, Trevor MIN Tepesch, Nick TEX 1 Target Field PL 443 107.4 24.8 89.3 89 0 1 1 441 30
06/04/14 Video View Arcia, Oswaldo MIN Estrada, Marco MIL 4 Target Field ND 388 103.6 31.0 56.6 91 0 1 2 385 30
06/04/14 Video View Ramirez, Aramis MIL Nolasco, Ricky MIN 7 Target Field JE 422 102.7 27.9 91.4 99 0 1 2 420 26
06/08/14 Video View Fowler, Dexter HOU Deduno, Samuel MIN 3 Target Field PL 365 97.0 32.5 72.1 104 -8 1 2 370 24
06/20/14 Video View Beckham, Gordon CHW Nolasco, Ricky MIN 1 Target Field ND 406 105.4 27.1 109.3 85 -3 1 2 406 30
06/30/14 Video View Perez, Salvador KC Pino, Yohan MIN 6 Target Field JE/L 389 97.9 32.6 99.6 109 2 1 3 384 15
07/03/14 Video View Beltran, Carlos NYY Hughes, Phil MIN 5 Target Field JE 385 98.0 32.9 74.2 105 6 1 2 377 18
07/06/14 Video View Colabello, Chris MIN Kuroda, Hiroki NYY 4 Target Field JE 400 101.1 25.8 98.6 79 0 1 1 398 14
07/21/14 Video View Willingham, Josh MIN Shaw, Bryan CLE 8 Target Field JE/L 363 103.3 22.9 112.5 57 -1 1 0 363 8
07/22/14 Video View Dozier, Brian MIN Atchison, Scott CLE 7 Target Field PL 356 96.0 33.1 122.5 88 3 1 2 350 26
07/23/14 Video View Arcia, Oswaldo MIN Bauer, Trevor CLE 6 Target Field PL 367 98.5 33.6 58.9 97 1 1 2 363 30
07/25/14 Video View Abreu, Jose CHW Correia, Kevin MIN 1 Target Field PL 431 105.7 29.8 96.4 119 -5 1 2 432 30
07/25/14 Video View Ramirez, Alexei CHW Correia, Kevin MIN 3 Target Field PL 383 101.1 30.1 114.4 90 -2 1 2 383 30
07/25/14 Video View Arcia, Oswaldo MIN Danks, John CHW 7 Target Field PL 387 100.5 34.1 72.4 119 0 1 3 383 28
07/26/14 Video View Ramirez, Alexei CHW Darnell, Logan MIN 5 Target Field JE 356 97.0 29.5 122.9 71 5 1 1 349 26
07/27/14 Video View Nieto, Adrian CHW Fien, Casey MIN 8 Target Field PL 356 95.0 33.7 115.9 94 3 1 2 350 9
08/05/14 Video View Alonso, Yonder SD Hughes, Phil MIN 5 Target Field PL 419 102.5 30.7 79.5 105 8 1 2 409 29
08/05/14 Video View Vargas, Kennys MIN Hahn, Jesse SD 6 Target Field PL 388 105.7 25.0 65.2 67 0 1 1 387 30
08/17/14 Video View Willingham, Josh KC Duensing, Brian MIN 9 Target Field ND 416 108.3 29.8 111.2 109 -11 1 3 423 30
08/19/14 Video View Arcia, Oswaldo MIN Bauer, Trevor CLE 1 Target Field ND 386 101.8 34.3 65.4 115 1 1 3 381 29
08/19/14 Video View Gomes, Yan CLE Gibson, Kyle MIN 2 Target Field PL 392 100.7 33.8 106.6 117 2 1 3 386 30
08/20/14 Video View Aviles, Mike CLE Deduno, Samuel MIN 9 Target Field PL 369 100.0 33.2 115.7 106 -10 1 3 375 30
08/21/14 Video View Vargas, Kennys MIN Kluber, Corey CLE 4 Target Field PL 382 99.7 29.2 110.4 86 0 1 2 380 27
08/21/14 Video View Walters, Zach CLE Hughes, Phil MIN 5 Target Field PL 376 101.6 27.7 60.3 71 2 1 1 371 29
08/22/14 Video View Escobar, Eduardo MIN Ray, Robbie DET 2 Target Field PL 385 98.3 36.6 107.5 122 17 1 4 363 8
08/22/14 Video View Arcia, Oswaldo MIN Romine, Andrew DET 8 Target Field ND 414 106.2 36.3 70.0 141 19 1 5 391 30
05/29/14 Video View Willingham, Josh MIN Martinez, Nick TEX 5 Target Field ND 446 109.7 26.2 97.8 106 -9 2 2 450 30
06/20/14 Video View Abreu, Jose CHW Nolasco, Ricky MIN 1 Target Field PL 407 101.3 31.0 97.9 112 -4 2 3 406 28
07/06/14 Video View Ellsbury, Jacoby NYY Nolasco, Ricky MIN 2 Target Field ND 386 101.8 32.0 62.3 98 0 2 2 382 30
07/19/14 Video View Rodriguez, Sean TB Hughes, Phil MIN 2 Target Field PL 365 100.8 35.0 113.3 123 -17 2 3 375 30
07/22/14 Video View Santana, Carlos CLE Pino, Yohan MIN 5 Target Field ND 397 101.9 34.7 65.8 115 12 2 4 380 30
08/06/14 Video View Plouffe, Trevor MIN Despaigne, Odrisamer SD 1 Target Field JE 348 95.1 34.4 119.4 98 -4 2 3 347 16
08/24/14 Video View Martinez, Victor DET Duensing, Brian MIN 6 Target Field JE 388 100.2 30.7 101.2 110 -14 2 2 397 30
07/05/14 Video View Willingham, Josh MIN Phelps, David NYY 7 Target Field PL 368 101.0 36.1 108.2 134 -15 3 4 375 30
07/06/14 Video View Plouffe, Trevor MIN Miller, Jim NYY 8 Target Field PL 404 99.4 32.2 101.8 105 11 3 3 389 15
08/06/14 Video View Smith, Seth SD Swarzak, Anthony MIN 10 Target Field PL 385 103.3 36.0 73.7 141 -10 3 5 387 30


About HitTracker | Contact Us
© 2006-2009 HitTrackerOnline